createdAt,value
2023-02-22T00:00:52.395Z,0.00
2023-02-22T00:01:52.439Z,0.00
2023-02-22T00:02:52.464Z,0.00
2023-02-22T00:03:52.387Z,0.00
2023-02-22T00:04:52.400Z,0.00
2023-02-22T00:05:52.354Z,0.00
2023-02-22T00:06:52.353Z,0.00
2023-02-22T00:07:52.333Z,0.00
2023-02-22T00:08:52.337Z,0.00
2023-02-22T00:09:52.328Z,0.00
2023-02-22T00:10:52.296Z,0.00
2023-02-22T00:11:52.305Z,0.00
2023-02-22T00:12:52.267Z,0.00
2023-02-22T00:13:52.267Z,0.00
2023-02-22T00:14:52.264Z,0.00
2023-02-22T00:15:52.238Z,0.00
2023-02-22T00:16:52.222Z,0.00
2023-02-22T00:17:52.215Z,0.00
2023-02-22T00:18:52.210Z,0.00
2023-02-22T00:19:52.215Z,0.00
2023-02-22T00:20:52.183Z,0.00
2023-02-22T00:21:52.163Z,0.00
2023-02-22T00:22:52.181Z,0.00
2023-02-22T00:23:52.146Z,0.00
2023-02-22T00:24:52.139Z,0.00
2023-02-22T00:25:52.114Z,0.00
2023-02-22T00:26:52.108Z,0.00
2023-02-22T00:27:52.100Z,0.00
2023-02-22T00:28:52.105Z,0.00
2023-02-22T00:29:52.124Z,0.00
2023-02-22T00:30:52.052Z,0.00
2023-02-22T00:31:52.211Z,0.00
2023-02-22T00:32:52.028Z,0.00
2023-02-22T00:33:52.022Z,0.00
2023-02-22T00:34:52.046Z,0.00
2023-02-22T00:35:52.014Z,0.00
2023-02-22T00:36:51.979Z,0.00
2023-02-22T00:37:51.984Z,0.00
2023-02-22T00:38:51.962Z,0.00
2023-02-22T00:39:51.960Z,0.00
2023-02-22T00:40:51.976Z,0.00
2023-02-22T00:41:51.941Z,0.00
2023-02-22T00:42:51.932Z,0.00
2023-02-22T00:43:51.921Z,0.00
2023-02-22T00:44:51.907Z,0.00
2023-02-22T00:45:51.933Z,0.00
2023-02-22T00:46:51.872Z,0.00
2023-02-22T00:47:51.874Z,0.00
2023-02-22T00:48:51.860Z,0.00
2023-02-22T00:49:51.841Z,0.00
2023-02-22T00:50:51.840Z,0.00
2023-02-22T00:51:51.820Z,0.00
2023-02-22T00:52:51.816Z,0.00
2023-02-22T00:53:51.794Z,0.00
2023-02-22T00:54:51.800Z,0.00
2023-02-22T00:55:51.789Z,0.00
2023-02-22T00:56:51.769Z,0.00
2023-02-22T00:57:51.750Z,0.00
2023-02-22T00:58:51.754Z,0.00
2023-02-22T00:59:51.761Z,0.00
2023-02-22T01:00:51.801Z,0.00
2023-02-22T01:01:51.734Z,0.00
2023-02-22T01:02:51.710Z,0.00
2023-02-22T01:03:51.702Z,0.00
2023-02-22T01:04:51.669Z,0.00
2023-02-22T01:05:51.669Z,0.00
2023-02-22T01:06:51.658Z,0.00
2023-02-22T01:07:51.643Z,0.00
2023-02-22T01:08:51.628Z,0.00
2023-02-22T01:09:51.643Z,0.00
2023-02-22T01:10:51.620Z,0.00
2023-02-22T01:11:51.617Z,0.00
2023-02-22T01:12:51.601Z,0.00
2023-02-22T01:13:51.581Z,0.00
2023-02-22T01:14:51.569Z,0.00
2023-02-22T01:15:51.573Z,0.00
2023-02-22T01:16:51.676Z,0.00
2023-02-22T01:17:51.545Z,0.00
2023-02-22T01:18:51.526Z,0.00
2023-02-22T01:19:53.884Z,0.00
2023-02-22T01:20:51.517Z,0.00
2023-02-22T01:21:51.496Z,0.00
2023-02-22T01:22:51.482Z,0.00
2023-02-22T01:23:51.497Z,0.00
2023-02-22T01:24:51.466Z,0.00
2023-02-22T01:25:51.468Z,0.00
2023-02-22T01:26:51.646Z,0.00
2023-02-22T01:27:51.440Z,0.00
2023-02-22T01:28:51.409Z,0.00
2023-02-22T01:29:51.406Z,0.00
2023-02-22T01:30:51.525Z,0.00
2023-02-22T01:31:51.380Z,0.00
2023-02-22T01:32:51.369Z,0.00
2023-02-22T01:33:51.358Z,0.00
2023-02-22T01:34:51.369Z,0.00
2023-02-22T01:35:51.357Z,0.00
2023-02-22T01:36:51.328Z,0.00
2023-02-22T01:37:51.315Z,0.00
2023-02-22T01:38:51.296Z,0.00
2023-02-22T01:39:51.297Z,0.00
2023-02-22T01:40:51.301Z,0.00
2023-02-22T01:41:51.268Z,0.00
2023-02-22T01:42:51.261Z,0.00
2023-02-22T01:43:51.251Z,0.00
2023-02-22T01:44:51.234Z,0.00
2023-02-22T01:45:51.262Z,0.00
2023-02-22T01:46:51.214Z,0.00
2023-02-22T01:47:51.204Z,0.00
2023-02-22T01:48:51.192Z,0.00
2023-02-22T01:49:51.187Z,0.00
2023-02-22T01:50:51.180Z,0.00
2023-02-22T01:51:51.158Z,0.00
2023-02-22T01:52:51.155Z,0.00
2023-02-22T01:53:51.137Z,0.00
2023-02-22T01:54:51.131Z,0.00
2023-02-22T01:55:51.162Z,0.00
2023-02-22T01:56:51.105Z,0.00
2023-02-22T01:57:51.099Z,0.00
2023-02-22T01:58:51.091Z,0.00
2023-02-22T01:59:51.073Z,0.00
2023-02-22T02:00:51.086Z,0.00
2023-02-22T02:01:51.058Z,0.00
2023-02-22T02:02:51.042Z,0.00
2023-02-22T02:03:51.050Z,0.00
2023-02-22T02:04:51.048Z,0.00
2023-02-22T02:05:51.009Z,0.00
2023-02-22T02:06:51.005Z,0.00
2023-02-22T02:07:51.011Z,0.00
2023-02-22T02:08:50.973Z,0.00
2023-02-22T02:09:50.972Z,0.00
2023-02-22T02:10:50.963Z,0.00
2023-02-22T02:11:50.978Z,0.00
2023-02-22T02:12:50.935Z,0.00
2023-02-22T02:13:50.941Z,0.00
2023-02-22T02:14:50.900Z,0.00
2023-02-22T02:15:50.901Z,0.00
2023-02-22T02:16:50.971Z,0.00
2023-02-22T02:17:50.906Z,0.00
2023-02-22T02:18:50.883Z,0.00
2023-02-22T02:19:50.879Z,0.00
2023-02-22T02:20:50.858Z,0.00
2023-02-22T02:21:50.858Z,0.00
2023-02-22T02:22:50.871Z,0.00
2023-02-22T02:23:50.854Z,0.00
2023-02-22T02:24:50.886Z,0.00
2023-02-22T02:25:50.805Z,0.00
2023-02-22T02:26:50.792Z,0.00
2023-02-22T02:27:50.780Z,0.00
2023-02-22T02:28:50.759Z,0.00
2023-02-22T02:29:50.766Z,0.00
2023-02-22T02:30:50.734Z,0.00
2023-02-22T02:31:50.828Z,0.00
2023-02-22T02:32:50.715Z,0.00
2023-02-22T02:33:50.710Z,0.00
2023-02-22T02:34:50.691Z,0.00
2023-02-22T02:35:50.686Z,0.00
2023-02-22T02:36:50.694Z,0.00
2023-02-22T02:37:50.670Z,0.00
2023-02-22T02:38:50.712Z,0.00
2023-02-22T02:39:50.646Z,0.00
2023-02-22T02:40:50.651Z,0.00
2023-02-22T02:41:50.666Z,0.00
2023-02-22T02:42:50.611Z,0.00
2023-02-22T02:43:50.648Z,0.00
2023-02-22T02:44:50.627Z,0.00
2023-02-22T02:45:50.581Z,0.00
2023-02-22T02:46:50.665Z,0.00
2023-02-22T02:47:50.552Z,0.00
2023-02-22T02:48:50.540Z,0.00
2023-02-22T02:49:50.627Z,0.00
2023-02-22T02:50:50.535Z,0.00
2023-02-22T02:51:50.553Z,0.00
2023-02-22T02:52:50.497Z,0.00
2023-02-22T02:53:50.485Z,0.00
2023-02-22T02:54:50.471Z,0.00
2023-02-22T02:55:50.477Z,0.00
2023-02-22T02:56:50.464Z,0.00
2023-02-22T02:57:50.450Z,0.00
2023-02-22T02:58:50.438Z,0.00
2023-02-22T02:59:50.420Z,0.00
2023-02-22T03:00:50.409Z,0.00
2023-02-22T03:01:50.471Z,0.00
2023-02-22T03:02:50.411Z,0.00
2023-02-22T03:03:50.391Z,0.00
2023-02-22T03:04:50.371Z,0.00
2023-02-22T03:05:50.372Z,0.00
2023-02-22T03:06:50.376Z,0.00
2023-02-22T03:07:50.354Z,0.00
2023-02-22T03:08:50.338Z,0.00
2023-02-22T03:09:50.319Z,0.00
2023-02-22T03:10:50.334Z,0.00
2023-02-22T03:11:50.302Z,0.00
2023-02-22T03:12:50.313Z,0.00
2023-02-22T03:13:50.321Z,0.00
2023-02-22T03:14:50.261Z,0.00
2023-02-22T03:15:50.261Z,0.00
2023-02-22T03:16:50.302Z,0.00
2023-02-22T03:17:50.239Z,0.00
2023-02-22T03:18:50.262Z,0.00
2023-02-22T03:19:50.210Z,0.00
2023-02-22T03:20:50.225Z,0.00
2023-02-22T03:21:50.211Z,0.00
2023-02-22T03:22:50.208Z,0.00
2023-02-22T03:23:50.178Z,0.00
2023-02-22T03:24:50.160Z,0.00
2023-02-22T03:25:50.158Z,0.00
2023-02-22T03:26:50.140Z,0.00
2023-02-22T03:27:50.142Z,0.00
2023-02-22T03:28:50.116Z,0.00
2023-02-22T03:29:50.121Z,0.00
2023-02-22T03:30:50.208Z,0.00
2023-02-22T03:31:50.235Z,0.00
2023-02-22T03:32:50.099Z,0.00
2023-02-22T03:33:50.073Z,0.00
2023-02-22T03:34:50.053Z,0.00
2023-02-22T03:35:50.054Z,0.00
2023-02-22T03:36:50.045Z,0.00
2023-02-22T03:37:50.068Z,0.00
2023-02-22T03:38:50.011Z,0.00
2023-02-22T03:39:50.017Z,0.00
2023-02-22T03:40:49.991Z,0.00
2023-02-22T03:41:49.986Z,0.00
2023-02-22T03:42:50.020Z,0.00
2023-02-22T03:43:49.969Z,0.00
2023-02-22T03:44:49.962Z,0.00
2023-02-22T03:45:49.941Z,0.00
2023-02-22T03:46:49.934Z,0.00
2023-02-22T03:47:49.941Z,0.00
2023-02-22T03:48:49.915Z,0.00
2023-02-22T03:49:49.916Z,0.00
2023-02-22T03:50:49.902Z,0.00
2023-02-22T03:51:49.885Z,0.00
2023-02-22T03:52:49.890Z,0.00
2023-02-22T03:53:49.875Z,0.00
2023-02-22T03:54:49.857Z,0.00
2023-02-22T03:55:49.833Z,0.00
2023-02-22T03:56:49.845Z,0.00
2023-02-22T03:57:49.844Z,0.00
2023-02-22T03:58:49.812Z,0.00
2023-02-22T03:59:49.796Z,0.00
2023-02-22T04:00:49.785Z,0.00
2023-02-22T04:01:49.772Z,0.00
2023-02-22T04:02:49.828Z,0.00
2023-02-22T04:03:49.753Z,0.00
2023-02-22T04:04:49.775Z,0.00
2023-02-22T04:05:49.729Z,0.00
2023-02-22T04:06:49.731Z,0.00
2023-02-22T04:07:49.731Z,0.00
2023-02-22T04:08:49.711Z,0.00
2023-02-22T04:09:49.696Z,0.00
2023-02-22T04:10:49.686Z,0.00
2023-02-22T04:11:49.670Z,0.00
2023-02-22T04:12:49.675Z,0.00
2023-02-22T04:13:49.638Z,0.00
2023-02-22T04:14:49.643Z,0.00
2023-02-22T04:15:49.627Z,0.00
2023-02-22T04:16:49.618Z,0.00
2023-02-22T04:17:49.616Z,0.00
2023-02-22T04:18:49.599Z,0.00
2023-02-22T04:19:49.588Z,0.00
2023-02-22T04:20:49.579Z,0.00
2023-02-22T04:21:49.558Z,0.00
2023-02-22T04:22:49.570Z,0.00
2023-02-22T04:23:49.531Z,0.00
2023-02-22T04:24:49.525Z,0.00
2023-02-22T04:25:49.519Z,0.00
2023-02-22T04:26:49.515Z,0.00
2023-02-22T04:27:49.509Z,0.00
2023-02-22T04:28:49.501Z,0.00
2023-02-22T04:29:49.470Z,0.00
2023-02-22T04:30:49.477Z,0.00
2023-02-22T04:31:49.446Z,0.00
2023-02-22T04:32:49.464Z,0.00
2023-02-22T04:33:49.440Z,0.00
2023-02-22T04:34:49.424Z,0.00
2023-02-22T04:35:49.412Z,0.00
2023-02-22T04:36:49.405Z,0.00
2023-02-22T04:37:49.395Z,0.00
2023-02-22T04:38:49.394Z,0.00
2023-02-22T04:39:49.404Z,0.00
2023-02-22T04:40:49.365Z,0.00
2023-02-22T04:41:49.348Z,0.00
2023-02-22T04:42:49.351Z,0.00
2023-02-22T04:43:49.351Z,0.00
2023-02-22T04:44:49.343Z,0.00
2023-02-22T04:45:49.310Z,0.00
2023-02-22T04:46:49.297Z,0.00
2023-02-22T04:47:49.316Z,0.00
2023-02-22T04:48:49.274Z,0.00
2023-02-22T04:49:49.271Z,0.00
2023-02-22T04:50:49.275Z,0.00
2023-02-22T04:51:49.249Z,0.00
2023-02-22T04:52:49.256Z,0.00
2023-02-22T04:53:49.235Z,0.00
2023-02-22T04:54:49.205Z,0.00
2023-02-22T04:55:49.192Z,0.00
2023-02-22T04:56:49.193Z,0.00
2023-02-22T04:57:49.206Z,0.00
2023-02-22T04:58:49.185Z,0.00
2023-02-22T04:59:49.177Z,0.00
2023-02-22T05:00:49.140Z,0.00
2023-02-22T05:01:49.133Z,0.00
2023-02-22T05:02:49.193Z,0.00
2023-02-22T05:03:49.137Z,0.00
2023-02-22T05:04:49.169Z,0.00
2023-02-22T05:05:49.088Z,0.00
2023-02-22T05:06:49.068Z,0.00
2023-02-22T05:07:49.062Z,0.00
2023-02-22T05:08:49.082Z,0.00
2023-02-22T05:09:49.044Z,0.00
2023-02-22T05:10:49.045Z,0.00
2023-02-22T05:11:49.023Z,0.00
2023-02-22T05:12:49.025Z,0.00
2023-02-22T05:13:49.012Z,0.00
2023-02-22T05:14:49.007Z,0.00
2023-02-22T05:15:49.003Z,0.00
2023-02-22T05:16:49.105Z,0.00
2023-02-22T05:17:48.973Z,0.00
2023-02-22T05:18:48.961Z,0.00
2023-02-22T05:19:48.930Z,0.00
2023-02-22T05:20:48.933Z,0.00
2023-02-22T05:21:48.938Z,0.00
2023-02-22T05:22:48.914Z,0.00
2023-02-22T05:23:48.905Z,0.00
2023-02-22T05:24:48.884Z,0.00
2023-02-22T05:25:48.886Z,0.00
2023-02-22T05:26:48.871Z,0.00
2023-02-22T05:27:48.860Z,0.00
2023-02-22T05:28:49.042Z,0.00
2023-02-22T05:29:48.837Z,0.00
2023-02-22T05:30:48.849Z,0.00
2023-02-22T05:31:48.923Z,0.00
2023-02-22T05:32:48.809Z,0.00
2023-02-22T05:33:48.807Z,0.00
2023-02-22T05:34:48.775Z,0.00
2023-02-22T05:35:48.762Z,0.00
2023-02-22T05:36:48.776Z,0.00
2023-02-22T05:37:48.748Z,0.00
2023-02-22T05:38:48.783Z,0.00
2023-02-22T05:39:48.738Z,0.00
2023-02-22T05:40:48.716Z,0.00
2023-02-22T05:41:48.709Z,0.00
2023-02-22T05:42:49.111Z,0.00
2023-02-22T05:43:49.066Z,0.00
2023-02-22T05:44:48.779Z,0.00
2023-02-22T05:45:48.662Z,0.00
2023-02-22T05:46:48.725Z,0.00
2023-02-22T05:47:48.648Z,0.00
2023-02-22T05:48:48.655Z,0.00
2023-02-22T05:49:48.629Z,0.00
2023-02-22T05:50:48.657Z,0.00
2023-02-22T05:51:48.633Z,0.00
2023-02-22T05:52:48.671Z,0.00
2023-02-22T05:53:48.582Z,0.00
2023-02-22T05:54:48.520Z,1.00
2023-02-22T05:55:48.613Z,0.00
2023-02-22T05:56:48.503Z,1.00
2023-02-22T05:57:48.509Z,1.00
2023-02-22T05:58:48.480Z,1.00
2023-02-22T05:59:48.511Z,1.00
2023-02-22T06:00:48.452Z,2.00
2023-02-22T06:01:48.517Z,2.00
2023-02-22T06:02:48.424Z,1.00
2023-02-22T06:03:48.435Z,1.00
2023-02-22T06:04:48.452Z,2.00
2023-02-22T06:05:48.480Z,1.00
2023-02-22T06:06:48.433Z,4.00
2023-02-22T06:07:48.404Z,2.00
2023-02-22T06:08:48.413Z,8.00
2023-02-22T06:09:48.350Z,8.00
2023-02-22T06:10:48.377Z,8.00
2023-02-22T06:11:48.324Z,8.00
2023-02-22T06:12:48.322Z,10.00
2023-02-22T06:13:48.324Z,11.00
2023-02-22T06:14:48.310Z,14.00
2023-02-22T06:15:48.291Z,11.00
2023-02-22T06:16:48.282Z,14.00
2023-02-22T06:17:48.270Z,19.00
2023-02-22T06:18:48.285Z,18.00
2023-02-22T06:19:48.262Z,18.00
2023-02-22T06:20:48.232Z,28.00
2023-02-22T06:21:48.225Z,35.00
2023-02-22T06:22:48.211Z,41.00
2023-02-22T06:23:48.201Z,47.00
2023-02-22T06:24:48.209Z,62.00
2023-02-22T06:25:48.420Z,69.00
2023-02-22T06:26:48.255Z,83.00
2023-02-22T06:27:48.171Z,97.00
2023-02-22T06:28:48.150Z,107.00
2023-02-22T06:29:48.151Z,114.00
2023-02-22T06:30:48.159Z,120.00
2023-02-22T06:31:48.208Z,137.00
2023-02-22T06:32:48.107Z,149.00
2023-02-22T06:33:48.085Z,162.00
2023-02-22T06:34:48.153Z,176.00
2023-02-22T06:35:48.081Z,183.00
2023-02-22T06:36:48.058Z,199.00
2023-02-22T06:37:48.052Z,213.00
2023-02-22T06:38:48.046Z,229.00
2023-02-22T06:39:48.037Z,244.00
2023-02-22T06:40:48.037Z,264.00
2023-02-22T06:41:48.008Z,285.00
2023-02-22T06:42:48.015Z,309.00
2023-02-22T06:43:47.987Z,327.00
2023-02-22T06:44:49.336Z,344.00
2023-02-22T06:45:47.981Z,349.00
2023-02-22T06:46:47.958Z,375.00
2023-02-22T06:47:47.955Z,395.00
2023-02-22T06:48:47.962Z,423.00
2023-02-22T06:49:47.946Z,457.00
2023-02-22T06:50:47.941Z,484.00
2023-02-22T06:51:47.917Z,510.00
2023-02-22T06:52:47.926Z,525.00
2023-02-22T06:53:47.886Z,562.00
2023-02-22T06:54:47.905Z,598.00
2023-02-22T06:55:47.876Z,642.00
2023-02-22T06:56:47.919Z,655.00
2023-02-22T06:57:47.832Z,697.00
2023-02-22T06:58:47.865Z,735.00
2023-02-22T06:59:47.836Z,726.00
2023-02-22T07:00:47.857Z,771.00
2023-02-22T07:01:47.816Z,793.00
2023-02-22T07:02:47.796Z,845.00
2023-02-22T07:03:47.776Z,877.00
2023-02-22T07:04:47.769Z,998.00
2023-02-22T07:05:47.858Z,1027.00
2023-02-22T07:06:47.910Z,1163.00
2023-02-22T07:07:47.757Z,1099.00
2023-02-22T07:08:47.729Z,1074.00
2023-02-22T07:09:47.731Z,1162.00
2023-02-22T07:10:47.727Z,1274.00
2023-02-22T07:11:47.693Z,1331.00
2023-02-22T07:12:47.682Z,1296.00
2023-02-22T07:13:47.675Z,1304.00
2023-02-22T07:14:47.680Z,1392.00
2023-02-22T07:15:47.685Z,1442.00
2023-02-22T07:16:47.707Z,1500.00
2023-02-22T07:17:47.646Z,1526.00
2023-02-22T07:18:47.630Z,1511.00
2023-02-22T07:19:47.673Z,1546.00
2023-02-22T07:20:47.611Z,1580.00
2023-02-22T07:21:47.601Z,1754.00
2023-02-22T07:22:47.607Z,1765.00
2023-02-22T07:23:47.573Z,1850.00
2023-02-22T07:24:47.561Z,1863.00
2023-02-22T07:25:47.545Z,1868.00
2023-02-22T07:26:47.545Z,1981.00
2023-02-22T07:27:47.541Z,2002.00
2023-02-22T07:28:47.653Z,1984.00
2023-02-22T07:29:47.540Z,2071.00
2023-02-22T07:30:47.541Z,2049.00
2023-02-22T07:31:47.543Z,2135.00
2023-02-22T07:32:47.573Z,2202.00
2023-02-22T07:33:47.455Z,2249.00
2023-02-22T07:34:47.452Z,2283.00
2023-02-22T07:35:47.474Z,2359.00
2023-02-22T07:36:47.432Z,2334.00
2023-02-22T07:37:47.424Z,2372.00
2023-02-22T07:38:47.417Z,2195.00
2023-02-22T07:39:47.418Z,2273.00
2023-02-22T07:40:47.438Z,2288.00
2023-02-22T07:41:47.391Z,2348.00
2023-02-22T07:42:47.367Z,2372.00
2023-02-22T07:43:47.352Z,2452.00
2023-02-22T07:44:47.348Z,2541.00
2023-02-22T07:45:47.400Z,2560.00
2023-02-22T07:46:47.350Z,2583.00
2023-02-22T07:47:47.320Z,2563.00
2023-02-22T07:48:47.378Z,2597.00
2023-02-22T07:49:47.282Z,2699.00
2023-02-22T07:50:47.311Z,2607.00
2023-02-22T07:51:47.312Z,2518.00
2023-02-22T07:52:47.308Z,2565.00
2023-02-22T07:53:47.271Z,2542.00
2023-02-22T07:54:47.261Z,2652.00
2023-02-22T07:55:47.240Z,2719.00
2023-02-22T07:56:47.244Z,2732.00
2023-02-22T07:57:47.219Z,2846.00
2023-02-22T07:58:47.212Z,3118.00
2023-02-22T07:59:47.196Z,3218.00
2023-02-22T08:00:47.184Z,3173.00
2023-02-22T08:01:47.162Z,3132.00
2023-02-22T08:02:47.248Z,3142.00
2023-02-22T08:03:47.161Z,3137.00
2023-02-22T08:04:47.160Z,3023.00
2023-02-22T08:05:47.138Z,3321.00
2023-02-22T08:06:47.138Z,3695.00
2023-02-22T08:07:47.093Z,3669.00
2023-02-22T08:08:47.088Z,3713.00
2023-02-22T08:09:47.077Z,3666.00
2023-02-22T08:10:47.081Z,3902.00
2023-02-22T08:11:47.446Z,3847.00
2023-02-22T08:12:47.039Z,3808.00
2023-02-22T08:13:47.030Z,3704.00
2023-02-22T08:14:47.037Z,3615.00
2023-02-22T08:15:47.054Z,3665.00
2023-02-22T08:16:47.081Z,3895.00
2023-02-22T08:17:47.002Z,3911.00
2023-02-22T08:18:46.978Z,4013.00
2023-02-22T08:19:46.985Z,4075.00
2023-02-22T08:20:46.968Z,4008.00
2023-02-22T08:21:46.952Z,3825.00
2023-02-22T08:22:46.938Z,3968.00
2023-02-22T08:23:46.932Z,4115.00
2023-02-22T08:24:46.934Z,3955.00
2023-02-22T08:25:46.914Z,4208.00
2023-02-22T08:26:46.931Z,4359.00
2023-02-22T08:27:46.909Z,4561.00
2023-02-22T08:28:46.958Z,4470.00
2023-02-22T08:29:46.860Z,4528.00
2023-02-22T08:30:46.934Z,4831.00
2023-02-22T08:31:46.960Z,5136.00
2023-02-22T08:32:47.014Z,4917.00
2023-02-22T08:33:46.835Z,4895.00
2023-02-22T08:34:46.803Z,5337.00
2023-02-22T08:35:46.795Z,5190.00
2023-02-22T08:36:46.808Z,5269.00
2023-02-22T08:37:46.778Z,6571.00
2023-02-22T08:38:46.797Z,6097.00
2023-02-22T08:39:46.774Z,6329.00
2023-02-22T08:40:46.727Z,6254.00
2023-02-22T08:41:46.741Z,6079.00
2023-02-22T08:42:46.748Z,6395.00
2023-02-22T08:43:46.717Z,6753.00
2023-02-22T08:44:46.689Z,6384.00
2023-02-22T08:45:46.773Z,6211.00
2023-02-22T08:46:46.676Z,6485.00
2023-02-22T08:47:46.654Z,5895.00
2023-02-22T08:48:46.647Z,6654.00
2023-02-22T08:49:46.648Z,6060.00
2023-02-22T08:50:46.641Z,6111.00
2023-02-22T08:51:46.638Z,6246.00
2023-02-22T08:52:46.597Z,6586.00
2023-02-22T08:53:46.604Z,6258.00
2023-02-22T08:54:46.598Z,6531.00
2023-02-22T08:55:46.588Z,6257.00
2023-02-22T08:56:46.577Z,6365.00
2023-02-22T08:57:46.636Z,6606.00
2023-02-22T08:58:46.527Z,6757.00
2023-02-22T08:59:46.517Z,6790.00
2023-02-22T09:00:46.515Z,6615.00
2023-02-22T09:01:46.602Z,6215.00
2023-02-22T09:02:46.478Z,6522.00
2023-02-22T09:03:46.541Z,6532.00
2023-02-22T09:04:46.463Z,6227.00
2023-02-22T09:05:46.533Z,6573.00
2023-02-22T09:06:46.435Z,6709.00
2023-02-22T09:07:46.450Z,6918.00
2023-02-22T09:08:46.412Z,6707.00
2023-02-22T09:09:46.414Z,6835.00
2023-02-22T09:10:46.397Z,7104.00
2023-02-22T09:11:46.381Z,7110.00
2023-02-22T09:12:46.414Z,7340.00
2023-02-22T09:13:46.361Z,7654.00
2023-02-22T09:14:46.350Z,7887.00
2023-02-22T09:15:46.349Z,7895.00
2023-02-22T09:16:46.353Z,7659.00
2023-02-22T09:17:46.342Z,7475.00
2023-02-22T09:18:46.311Z,8196.00
2023-02-22T09:19:46.303Z,8358.00
2023-02-22T09:20:46.313Z,8430.00
2023-02-22T09:21:46.271Z,8516.00
2023-02-22T09:22:46.262Z,8343.00
2023-02-22T09:23:46.259Z,7912.00
2023-02-22T09:24:46.267Z,8137.00
2023-02-22T09:25:46.243Z,8225.00
2023-02-22T09:26:46.227Z,8081.00
2023-02-22T09:27:46.210Z,8146.00
2023-02-22T09:28:46.191Z,7821.00
2023-02-22T09:29:46.184Z,7692.00
2023-02-22T09:30:46.277Z,7782.00
2023-02-22T09:31:46.254Z,7579.00
2023-02-22T09:32:46.435Z,7934.00
2023-02-22T09:33:47.488Z,7734.00
2023-02-22T09:34:46.137Z,7577.00
2023-02-22T09:35:46.222Z,7853.00
2023-02-22T09:36:46.147Z,8295.00
2023-02-22T09:37:46.099Z,9058.00
2023-02-22T09:38:46.070Z,8426.00
2023-02-22T09:39:46.093Z,8753.00
2023-02-22T09:40:46.087Z,9038.00
2023-02-22T09:41:46.056Z,9092.00
2023-02-22T09:42:46.062Z,9550.00
2023-02-22T09:43:46.033Z,9743.00
2023-02-22T09:44:46.009Z,10097.00
2023-02-22T09:45:46.034Z,10026.00
2023-02-22T09:46:46.080Z,9863.00
2023-02-22T09:47:46.790Z,9593.00
2023-02-22T09:48:45.982Z,9456.00
2023-02-22T09:49:45.960Z,9876.00
2023-02-22T09:50:45.953Z,9785.00
2023-02-22T09:51:45.966Z,9135.00
2023-02-22T09:52:45.937Z,8907.00
2023-02-22T09:53:46.008Z,10256.00
2023-02-22T09:54:45.898Z,10510.00
2023-02-22T09:55:45.893Z,9873.00
2023-02-22T09:56:45.899Z,10122.00
2023-02-22T09:57:45.882Z,10575.00
2023-02-22T09:58:46.072Z,10441.00
2023-02-22T09:59:45.849Z,10514.00
2023-02-22T10:00:45.832Z,10354.00
2023-02-22T10:01:45.954Z,9923.00
2023-02-22T10:02:45.820Z,10261.00
2023-02-22T10:03:45.859Z,9987.00
2023-02-22T10:04:45.790Z,9764.00
2023-02-22T10:05:45.868Z,9574.00
2023-02-22T10:06:45.808Z,9592.00
2023-02-22T10:07:45.848Z,9435.00
2023-02-22T10:08:45.749Z,9332.00
2023-02-22T10:09:45.764Z,9221.00
2023-02-22T10:10:45.760Z,9178.00
2023-02-22T10:11:45.920Z,9196.00
2023-02-22T10:12:45.725Z,9132.00
2023-02-22T10:13:45.732Z,9036.00
2023-02-22T10:14:45.680Z,9108.00
2023-02-22T10:15:45.851Z,9036.00
2023-02-22T10:16:45.697Z,9067.00
2023-02-22T10:17:45.664Z,9042.00
2023-02-22T10:18:45.643Z,9024.00
2023-02-22T10:19:45.641Z,9026.00
2023-02-22T10:20:45.651Z,9060.00
2023-02-22T10:21:45.623Z,9141.00
2023-02-22T10:22:45.604Z,9255.00
2023-02-22T10:23:46.358Z,9079.00
2023-02-22T10:24:45.605Z,9088.00
2023-02-22T10:25:45.562Z,9218.00
2023-02-22T10:26:45.543Z,9194.00
2023-02-22T10:27:45.672Z,9172.00
2023-02-22T10:28:45.521Z,9101.00
2023-02-22T10:29:45.516Z,9068.00
2023-02-22T10:30:45.544Z,9102.00
2023-02-22T10:31:45.782Z,9130.00
2023-02-22T10:32:45.568Z,9192.00
2023-02-22T10:33:45.514Z,9250.00
2023-02-22T10:34:45.498Z,9254.00
2023-02-22T10:35:47.055Z,9347.00
2023-02-22T10:36:45.505Z,9388.00
2023-02-22T10:37:45.656Z,9361.00
2023-02-22T10:38:45.488Z,9449.00
2023-02-22T10:39:45.447Z,9476.00
2023-02-22T10:40:45.453Z,9501.00
2023-02-22T10:41:45.395Z,9593.00
2023-02-22T10:42:45.585Z,9517.00
2023-02-22T10:43:45.398Z,9547.00
2023-02-22T10:44:45.353Z,9591.00
2023-02-22T10:45:45.404Z,9676.00
2023-02-22T10:46:45.329Z,9647.00
2023-02-22T10:47:45.336Z,9570.00
2023-02-22T10:48:45.369Z,9625.00
2023-02-22T10:49:45.364Z,9598.00
2023-02-22T10:50:45.323Z,9581.00
2023-02-22T10:51:45.279Z,9504.00
2023-02-22T10:52:45.273Z,9522.00
2023-02-22T10:53:45.284Z,9508.00
2023-02-22T10:54:45.437Z,9512.00
2023-02-22T10:55:45.279Z,9454.00
2023-02-22T10:56:45.233Z,9461.00
2023-02-22T10:57:45.259Z,9571.00
2023-02-22T10:58:45.248Z,9553.00
2023-02-22T10:59:45.198Z,9547.00
2023-02-22T11:00:46.662Z,9600.00
2023-02-22T11:01:45.218Z,9549.00
2023-02-22T11:02:45.319Z,9495.00
2023-02-22T11:03:45.155Z,9485.00
2023-02-22T11:04:45.139Z,9464.00
2023-02-22T11:05:45.150Z,9571.00
2023-02-22T11:06:45.144Z,9588.00
2023-02-22T11:07:45.099Z,9561.00
2023-02-22T11:08:45.125Z,9657.00
2023-02-22T11:09:45.084Z,9566.00
2023-02-22T11:10:45.070Z,9547.00
2023-02-22T11:11:45.066Z,9576.00
2023-02-22T11:12:45.042Z,9789.00
2023-02-22T11:13:45.035Z,9796.00
2023-02-22T11:14:45.020Z,9945.00
2023-02-22T11:15:45.006Z,9828.00
2023-02-22T11:16:45.117Z,9748.00
2023-02-22T11:17:44.994Z,9879.00
2023-02-22T11:18:44.996Z,10026.00
2023-02-22T11:19:44.974Z,9910.00
2023-02-22T11:20:44.946Z,9945.00
2023-02-22T11:21:44.943Z,9841.00
2023-02-22T11:22:44.934Z,9977.00
2023-02-22T11:23:45.166Z,9854.00
2023-02-22T11:24:49.343Z,9864.00
2023-02-22T11:25:44.895Z,9921.00
2023-02-22T11:26:44.887Z,9870.00
2023-02-22T11:27:44.924Z,9736.00
2023-02-22T11:28:44.866Z,9596.00
2023-02-22T11:29:45.068Z,9695.00
2023-02-22T11:30:44.982Z,9774.00
2023-02-22T11:31:44.946Z,9736.00
2023-02-22T11:32:44.858Z,9514.00
2023-02-22T11:33:44.830Z,9495.00
2023-02-22T11:34:44.808Z,9458.00
2023-02-22T11:35:44.796Z,9389.00
2023-02-22T11:36:44.785Z,9402.00
2023-02-22T11:37:44.787Z,9443.00
2023-02-22T11:38:44.765Z,9446.00
2023-02-22T11:39:44.965Z,9423.00
2023-02-22T11:40:44.725Z,9356.00
2023-02-22T11:41:44.737Z,9264.00
2023-02-22T11:42:44.735Z,9292.00
2023-02-22T11:43:44.930Z,9262.00
2023-02-22T11:44:44.707Z,9198.00
2023-02-22T11:45:57.741Z,9218.00
2023-02-22T11:46:45.663Z,9269.00
2023-02-22T11:47:44.644Z,9101.00
2023-02-22T11:48:44.642Z,9175.00
2023-02-22T11:49:44.635Z,9024.00
2023-02-22T11:50:44.612Z,9005.00
2023-02-22T11:51:44.628Z,8907.00
2023-02-22T11:52:44.594Z,9126.00
2023-02-22T11:53:44.596Z,8752.00
2023-02-22T11:54:44.597Z,8982.00
2023-02-22T11:55:44.571Z,8932.00
2023-02-22T11:56:44.800Z,8810.00
2023-02-22T11:57:44.615Z,8831.00
2023-02-22T11:58:44.522Z,8884.00
2023-02-22T11:59:44.541Z,9058.00
2023-02-22T12:00:44.502Z,8989.00
2023-02-22T12:01:44.521Z,8930.00
2023-02-22T12:02:56.326Z,8773.00
2023-02-22T12:03:45.636Z,8951.00
2023-02-22T12:04:44.564Z,8848.00
2023-02-22T12:05:44.463Z,8852.00
2023-02-22T12:06:44.459Z,8714.00
2023-02-22T12:07:44.494Z,9008.00
2023-02-22T12:08:44.418Z,8912.00
2023-02-22T12:09:44.431Z,9006.00
2023-02-22T12:10:44.394Z,8969.00
2023-02-22T12:11:44.396Z,9079.00
2023-02-22T12:12:44.418Z,8980.00
2023-02-22T12:13:44.498Z,9091.00
2023-02-22T12:14:44.366Z,9005.00
2023-02-22T12:15:44.355Z,8809.00
2023-02-22T12:16:44.380Z,8798.00
2023-02-22T12:17:54.284Z,8866.00
2023-02-22T12:18:45.314Z,8780.00
2023-02-22T12:19:44.778Z,8886.00
2023-02-22T12:20:44.426Z,8750.00
2023-02-22T12:21:44.316Z,8986.00
2023-02-22T12:22:44.325Z,8976.00
2023-02-22T12:23:44.320Z,8863.00
2023-02-22T12:24:44.302Z,9086.00
2023-02-22T12:25:44.322Z,9326.00
2023-02-22T12:26:44.286Z,9396.00
2023-02-22T12:27:44.270Z,9427.00
2023-02-22T12:28:44.261Z,9456.00
2023-02-22T12:29:44.249Z,9356.00
2023-02-22T12:30:44.328Z,9198.00
2023-02-22T12:31:44.274Z,9144.00
2023-02-22T12:32:44.233Z,9035.00
2023-02-22T12:33:44.205Z,8986.00
2023-02-22T12:34:44.256Z,9047.00
2023-02-22T12:35:44.178Z,9019.00
2023-02-22T12:36:44.164Z,9052.00
2023-02-22T12:37:44.137Z,9023.00
2023-02-22T12:38:44.123Z,9079.00
2023-02-22T12:39:53.119Z,8897.00
2023-02-22T12:40:45.163Z,9153.00
2023-02-22T12:41:44.100Z,9270.00